sensor_id;sensor_type;location;lat;lon;timestamp;pressure;altitude;pressure_sealevel;temperature;humidity
57050;BME280;42935;50.966;16.992;2023-04-10T00:01:36;102489.49;;;5.71;100.00
57050;BME280;42935;50.966;16.992;2023-04-10T00:05:00;102477.27;;;5.70;100.00
57050;BME280;42935;50.966;16.992;2023-04-10T00:08:25;102479.49;;;5.86;100.00
57050;BME280;42935;50.966;16.992;2023-04-10T00:11:49;102471.40;;;5.56;100.00
57050;BME280;42935;50.966;16.992;2023-04-10T00:15:17;102465.66;;;5.71;100.00
57050;BME280;42935;50.966;16.992;2023-04-10T00:18:37;102462.95;;;5.81;100.00
57050;BME280;42935;50.966;16.992;2023-04-10T00:21:59;102463.10;;;5.80;100.00
57050;BME280;42935;50.966;16.992;2023-04-10T00:25:27;102473.50;;;5.79;100.00
57050;BME280;42935;50.966;16.992;2023-04-10T00:28:47;102457.86;;;5.74;100.00
57050;BME280;42935;50.966;16.992;2023-04-10T00:32:15;102464.77;;;5.68;100.00
57050;BME280;42935;50.966;16.992;2023-04-10T00:35:40;102473.11;;;5.78;100.00
57050;BME280;42935;50.966;16.992;2023-04-10T00:39:05;102447.59;;;5.58;100.00
57050;BME280;42935;50.966;16.992;2023-04-10T00:42:34;102467.03;;;5.64;100.00
57050;BME280;42935;50.966;16.992;2023-04-10T00:46:04;102452.30;;;5.56;100.00
57050;BME280;42935;50.966;16.992;2023-04-10T00:49:24;102455.29;;;5.57;100.00
57050;BME280;42935;50.966;16.992;2023-04-10T00:53:19;102443.29;;;5.21;100.00
57050;BME280;42935;50.966;16.992;2023-04-10T00:56:45;102474.57;;;4.97;100.00
57050;BME280;42935;50.966;16.992;2023-04-10T01:00:14;102448.95;;;4.74;100.00
57050;BME280;42935;50.966;16.992;2023-04-10T01:03:43;102464.11;;;4.84;100.00
57050;BME280;42935;50.966;16.992;2023-04-10T01:18:01;102451.93;;;4.96;100.00
57050;BME280;42935;50.966;16.992;2023-04-10T01:21:27;102458.38;;;4.98;100.00
57050;BME280;42935;50.966;16.992;2023-04-10T01:32:02;102460.67;;;4.94;100.00
57050;BME280;42935;50.966;16.992;2023-04-10T01:35:26;102450.83;;;4.86;100.00
57050;BME280;42935;50.966;16.992;2023-04-10T01:38:53;102458.05;;;4.94;100.00
57050;BME280;42935;50.966;16.992;2023-04-10T01:42:22;102463.02;;;4.90;100.00
57050;BME280;42935;50.966;16.992;2023-04-10T01:45:52;102462.17;;;4.92;100.00
57050;BME280;42935;50.966;16.992;2023-04-10T01:49:21;102455.51;;;4.68;100.00
57050;BME280;42935;50.966;16.992;2023-04-10T01:52:41;102472.57;;;4.80;100.00
57050;BME280;42935;50.966;16.992;2023-04-10T01:56:10;102464.24;;;4.76;100.00
57050;BME280;42935;50.966;16.992;2023-04-10T01:59:38;102463.88;;;4.79;100.00
57050;BME280;42935;50.966;16.992;2023-04-10T02:02:58;102471.95;;;4.79;100.00
57050;BME280;42935;50.966;16.992;2023-04-10T02:10:03;102472.40;;;4.93;100.00
57050;BME280;42935;50.966;16.992;2023-04-10T02:13:27;102462.59;;;4.89;100.00
57050;BME280;42935;50.966;16.992;2023-04-10T02:16:53;102471.00;;;4.68;100.00
57050;BME280;42935;50.966;16.992;2023-04-10T02:20:23;102471.33;;;4.93;100.00
57050;BME280;42935;50.966;16.992;2023-04-10T02:23:45;102472.90;;;4.94;100.00
57050;BME280;42935;50.966;16.992;2023-04-10T02:27:09;102477.75;;;5.14;100.00
57050;BME280;42935;50.966;16.992;2023-04-10T02:30:34;102466.03;;;5.11;100.00
57050;BME280;42935;50.966;16.992;2023-04-10T02:33:58;102475.96;;;5.30;100.00
57050;BME280;42935;50.966;16.992;2023-04-10T02:37:22;102466.82;;;5.24;100.00
57050;BME280;42935;50.966;16.992;2023-04-10T02:40:46;102477.56;;;5.36;100.00
57050;BME280;42935;50.966;16.992;2023-04-10T02:44:16;102475.56;;;5.40;100.00
57050;BME280;42935;50.966;16.992;2023-04-10T02:47:36;102473.26;;;5.48;100.00
57050;BME280;42935;50.966;16.992;2023-04-10T02:51:05;102458.45;;;5.42;100.00
57050;BME280;42935;50.966;16.992;2023-04-10T02:54:29;102455.70;;;5.44;100.00
57050;BME280;42935;50.966;16.992;2023-04-10T02:57:53;102465.80;;;5.41;100.00
57050;BME280;42935;50.966;16.992;2023-04-10T03:01:21;102466.34;;;5.18;100.00
57050;BME280;42935;50.966;16.992;2023-04-10T03:04:49;102459.79;;;5.22;100.00
57050;BME280;42935;50.966;16.992;2023-04-10T03:08:16;102455.73;;;5.33;100.00
57050;BME280;42935;50.966;16.992;2023-04-10T03:11:43;102457.64;;;5.39;100.00
57050;BME280;42935;50.966;16.992;2023-04-10T03:15:12;102466.56;;;5.34;100.00
57050;BME280;42935;50.966;16.992;2023-04-10T03:18:41;102458.29;;;5.34;100.00
57050;BME280;42935;50.966;16.992;2023-04-10T03:22:09;102459.35;;;5.32;100.00
57050;BME280;42935;50.966;16.992;2023-04-10T03:25:38;102456.12;;;5.41;100.00
57050;BME280;42935;50.966;16.992;2023-04-10T03:28:59;102470.92;;;5.24;100.00
57050;BME280;42935;50.966;16.992;2023-04-10T03:32:26;102458.05;;;4.68;100.00
57050;BME280;42935;50.966;16.992;2023-04-10T03:35:57;102468.38;;;4.44;100.00
57050;BME280;42935;50.966;16.992;2023-04-10T03:39:21;102469.34;;;4.56;100.00
57050;BME280;42935;50.966;16.992;2023-04-10T03:42:46;102456.63;;;4.44;100.00
57050;BME280;42935;50.966;16.992;2023-04-10T03:46:06;102474.68;;;4.38;100.00
57050;BME280;42935;50.966;16.992;2023-04-10T03:49:38;102476.35;;;4.24;100.00
57050;BME280;42935;50.966;16.992;2023-04-10T03:53:03;102481.59;;;4.24;100.00
57050;BME280;42935;50.966;16.992;2023-04-10T03:56:31;102480.59;;;4.36;100.00
57050;BME280;42935;50.966;16.992;2023-04-10T03:59:55;102470.08;;;4.20;100.00
57050;BME280;42935;50.966;16.992;2023-04-10T04:03:19;102482.77;;;4.12;100.00
57050;BME280;42935;50.966;16.992;2023-04-10T04:06:41;102489.80;;;4.10;100.00
57050;BME280;42935;50.966;16.992;2023-04-10T04:10:03;102493.25;;;3.95;100.00
57050;BME280;42935;50.966;16.992;2023-04-10T04:13:23;102495.38;;;3.78;100.00
57050;BME280;42935;50.966;16.992;2023-04-10T04:16:52;102488.39;;;3.60;100.00
57050;BME280;42935;50.966;16.992;2023-04-10T04:20:17;102493.84;;;3.58;100.00
57050;BME280;42935;50.966;16.992;2023-04-10T04:23:41;102491.89;;;3.30;100.00
57050;BME280;42935;50.966;16.992;2023-04-10T04:27:01;102497.94;;;3.42;100.00
57050;BME280;42935;50.966;16.992;2023-04-10T04:30:25;102499.00;;;3.48;100.00
57050;BME280;42935;50.966;16.992;2023-04-10T04:33:49;102513.12;;;3.10;100.00
57050;BME280;42935;50.966;16.992;2023-04-10T04:37:18;102501.77;;;3.31;100.00
57050;BME280;42935;50.966;16.992;2023-04-10T04:40:46;102504.56;;;2.92;100.00
57050;BME280;42935;50.966;16.992;2023-04-10T04:44:09;102505.73;;;3.22;100.00
57050;BME280;42935;50.966;16.992;2023-04-10T04:47:35;102493.34;;;3.51;100.00
57050;BME280;42935;50.966;16.992;2023-04-10T04:51:06;102505.60;;;3.51;100.00
57050;BME280;42935;50.966;16.992;2023-04-10T04:54:27;102506.66;;;3.15;100.00
57050;BME280;42935;50.966;16.992;2023-04-10T04:57:46;102511.07;;;3.21;100.00
57050;BME280;42935;50.966;16.992;2023-04-10T05:01:10;102516.55;;;3.36;100.00
57050;BME280;42935;50.966;16.992;2023-04-10T05:04:36;102511.90;;;3.65;100.00
57050;BME280;42935;50.966;16.992;2023-04-10T05:08:12;102528.50;;;3.24;100.00
57050;BME280;42935;50.966;16.992;2023-04-10T05:11:39;102514.36;;;3.39;100.00
57050;BME280;42935;50.966;16.992;2023-04-10T05:15:08;102525.93;;;3.58;100.00
57050;BME280;42935;50.966;16.992;2023-04-10T05:18:34;102508.66;;;3.63;100.00
57050;BME280;42935;50.966;16.992;2023-04-10T05:21:54;102524.26;;;3.69;100.00
57050;BME280;42935;50.966;16.992;2023-04-10T05:25:14;102543.43;;;3.98;100.00
57050;BME280;42935;50.966;16.992;2023-04-10T05:28:42;102552.38;;;3.75;100.00
57050;BME280;42935;50.966;16.992;2023-04-10T05:32:02;102546.47;;;3.54;100.00
57050;BME280;42935;50.966;16.992;2023-04-10T05:35:26;102558.58;;;3.83;100.00
57050;BME280;42935;50.966;16.992;2023-04-10T05:38:54;102567.23;;;3.89;100.00
57050;BME280;42935;50.966;16.992;2023-04-10T05:42:20;102569.77;;;3.88;100.00
57050;BME280;42935;50.966;16.992;2023-04-10T05:45:48;102562.32;;;3.81;100.00
57050;BME280;42935;50.966;16.992;2023-04-10T05:49:16;102572.64;;;4.01;100.00
57050;BME280;42935;50.966;16.992;2023-04-10T05:52:40;102557.31;;;3.97;100.00
57050;BME280;42935;50.966;16.992;2023-04-10T05:56:08;102567.65;;;4.27;100.00
57050;BME280;42935;50.966;16.992;2023-04-10T05:59:36;102570.16;;;4.58;100.00
57050;BME280;42935;50.966;16.992;2023-04-10T06:02:57;102570.30;;;4.49;100.00
57050;BME280;42935;50.966;16.992;2023-04-10T06:06:21;102572.70;;;4.71;100.00
57050;BME280;42935;50.966;16.992;2023-04-10T06:09:48;102561.13;;;4.99;100.00
57050;BME280;42935;50.966;16.992;2023-04-10T06:13:13;102557.33;;;5.00;100.00
57050;BME280;42935;50.966;16.992;2023-04-10T06:16:38;102565.28;;;5.12;100.00
57050;BME280;42935;50.966;16.992;2023-04-10T06:20:06;102563.80;;;5.25;100.00
57050;BME280;42935;50.966;16.992;2023-04-10T06:23:34;102564.44;;;5.12;100.00
57050;BME280;42935;50.966;16.992;2023-04-10T06:26:54;102529.55;;;5.11;100.00
57050;BME280;42935;50.966;16.992;2023-04-10T06:30:18;102555.34;;;4.86;100.00
57050;BME280;42935;50.966;16.992;2023-04-10T06:33:50;102555.01;;;5.01;100.00
57050;BME280;42935;50.966;16.992;2023-04-10T06:37:13;102551.58;;;4.98;100.00
57050;BME280;42935;50.966;16.992;2023-04-10T06:40:41;102547.05;;;4.93;100.00
57050;BME280;42935;50.966;16.992;2023-04-10T06:44:01;102531.34;;;4.99;100.00
57050;BME280;42935;50.966;16.992;2023-04-10T06:47:16;102526.71;;;5.18;100.00
57050;BME280;42935;50.966;16.992;2023-04-10T06:50:36;102523.92;;;5.50;100.00
57050;BME280;42935;50.966;16.992;2023-04-10T06:54:05;102525.05;;;5.50;100.00
57050;BME280;42935;50.966;16.992;2023-04-10T06:57:28;102540.82;;;5.87;100.00
57050;BME280;42935;50.966;16.992;2023-04-10T07:00:59;102557.27;;;6.21;100.00
57050;BME280;42935;50.966;16.992;2023-04-10T07:04:24;102555.42;;;6.32;100.00
57050;BME280;42935;50.966;16.992;2023-04-10T07:07:52;102572.27;;;6.64;100.00
57050;BME280;42935;50.966;16.992;2023-04-10T07:11:13;102570.58;;;6.80;100.00
57050;BME280;42935;50.966;16.992;2023-04-10T07:14:38;102570.18;;;6.65;100.00
57050;BME280;42935;50.966;16.992;2023-04-10T07:18:06;102571.77;;;6.39;100.00
57050;BME280;42935;50.966;16.992;2023-04-10T07:21:35;102579.26;;;6.63;100.00
57050;BME280;42935;50.966;16.992;2023-04-10T07:24:54;102572.62;;;7.02;100.00
57050;BME280;42935;50.966;16.992;2023-04-10T07:28:22;102572.61;;;6.88;100.00
57050;BME280;42935;50.966;16.992;2023-04-10T07:31:45;102570.24;;;6.95;100.00
57050;BME280;42935;50.966;16.992;2023-04-10T07:35:17;102570.08;;;7.19;100.00
57050;BME280;42935;50.966;16.992;2023-04-10T07:38:42;102571.61;;;7.06;100.00
57050;BME280;42935;50.966;16.992;2023-04-10T07:42:05;102568.55;;;7.15;100.00
57050;BME280;42935;50.966;16.992;2023-04-10T07:45:37;102498.30;;;7.20;100.00
57050;BME280;42935;50.966;16.992;2023-04-10T07:49:06;102554.90;;;7.79;100.00
57050;BME280;42935;50.966;16.992;2023-04-10T07:52:25;102550.37;;;8.12;100.00
57050;BME280;42935;50.966;16.992;2023-04-10T07:55:56;102556.59;;;8.35;100.00
57050;BME280;42935;50.966;16.992;2023-04-10T07:59:19;102546.96;;;8.53;100.00
57050;BME280;42935;50.966;16.992;2023-04-10T08:02:43;102555.53;;;8.84;100.00
57050;BME280;42935;50.966;16.992;2023-04-10T08:06:15;102548.22;;;8.61;100.00
57050;BME280;42935;50.966;16.992;2023-04-10T08:09:41;102559.01;;;8.88;100.00
57050;BME280;42935;50.966;16.992;2023-04-10T08:13:06;102556.82;;;9.04;100.00
57050;BME280;42935;50.966;16.992;2023-04-10T08:16:34;102542.95;;;9.25;100.00
57050;BME280;42935;50.966;16.992;2023-04-10T08:20:02;102550.16;;;9.48;100.00
57050;BME280;42935;50.966;16.992;2023-04-10T08:23:31;102540.47;;;9.64;100.00
57050;BME280;42935;50.966;16.992;2023-04-10T08:27:00;102535.06;;;9.93;100.00
57050;BME280;42935;50.966;16.992;2023-04-10T08:30:16;102522.94;;;9.89;100.00
57050;BME280;42935;50.966;16.992;2023-04-10T08:33:45;102525.52;;;9.84;100.00
57050;BME280;42935;50.966;16.992;2023-04-10T08:37:05;102534.62;;;10.06;100.00
57050;BME280;42935;50.966;16.992;2023-04-10T08:40:42;102529.13;;;9.66;100.00
57050;BME280;42935;50.966;16.992;2023-04-10T08:43:56;102534.64;;;9.95;100.00
57050;BME280;42935;50.966;16.992;2023-04-10T08:47:20;102541.03;;;9.61;100.00
57050;BME280;42935;50.966;16.992;2023-04-10T08:50:46;102525.37;;;10.02;100.00
57050;BME280;42935;50.966;16.992;2023-04-10T08:54:12;102522.25;;;10.26;100.00
57050;BME280;42935;50.966;16.992;2023-04-10T08:57:37;102522.98;;;10.15;100.00
57050;BME280;42935;50.966;16.992;2023-04-10T09:01:01;102529.76;;;10.42;100.00
57050;BME280;42935;50.966;16.992;2023-04-10T09:04:29;102518.98;;;10.12;100.00
57050;BME280;42935;50.966;16.992;2023-04-10T09:07:59;102511.55;;;10.74;100.00
57050;BME280;42935;50.966;16.992;2023-04-10T09:11:24;102508.80;;;10.47;100.00
57050;BME280;42935;50.966;16.992;2023-04-10T09:14:58;102511.90;;;10.29;100.00
57050;BME280;42935;50.966;16.992;2023-04-10T09:18:22;102476.56;;;9.91;100.00
57050;BME280;42935;50.966;16.992;2023-04-10T09:21:53;102509.73;;;10.80;100.00
57050;BME280;42935;50.966;16.992;2023-04-10T09:29:02;102511.09;;;11.41;100.00
57050;BME280;42935;50.966;16.992;2023-04-10T09:32:36;102500.63;;;11.45;100.00
57050;BME280;42935;50.966;16.992;2023-04-10T09:36:11;102501.69;;;11.05;100.00
57050;BME280;42935;50.966;16.992;2023-04-10T09:39:37;102504.71;;;11.19;100.00
57050;BME280;42935;50.966;16.992;2023-04-10T09:43:16;102488.88;;;11.43;100.00
57050;BME280;42935;50.966;16.992;2023-04-10T09:46:41;102482.10;;;11.53;100.00
57050;BME280;42935;50.966;16.992;2023-04-10T09:50:01;102486.11;;;11.58;99.79
57050;BME280;42935;50.966;16.992;2023-04-10T09:53:30;102477.13;;;11.21;98.08
57050;BME280;42935;50.966;16.992;2023-04-10T09:56:57;102468.80;;;10.65;100.00
57050;BME280;42935;50.966;16.992;2023-04-10T10:00:16;102468.60;;;11.44;100.00
57050;BME280;42935;50.966;16.992;2023-04-10T10:03:38;102465.70;;;11.80;100.00
57050;BME280;42935;50.966;16.992;2023-04-10T10:07:03;102456.38;;;12.15;100.00
57050;BME280;42935;50.966;16.992;2023-04-10T10:10:32;102463.44;;;12.36;100.00
57050;BME280;42935;50.966;16.992;2023-04-10T10:13:53;102445.81;;;12.32;100.00
57050;BME280;42935;50.966;16.992;2023-04-10T10:17:19;102449.61;;;11.36;100.00
57050;BME280;42935;50.966;16.992;2023-04-10T10:20:45;102458.41;;;11.68;100.00
57050;BME280;42935;50.966;16.992;2023-04-10T10:24:07;102444.27;;;11.98;100.00
57050;BME280;42935;50.966;16.992;2023-04-10T10:27:36;102455.15;;;11.84;100.00
57050;BME280;42935;50.966;16.992;2023-04-10T10:31:02;102442.15;;;11.68;100.00
57050;BME280;42935;50.966;16.992;2023-04-10T10:34:31;102445.25;;;12.48;100.00
57050;BME280;42935;50.966;16.992;2023-04-10T10:38:04;102439.13;;;12.46;100.00
57050;BME280;42935;50.966;16.992;2023-04-10T10:41:31;102423.31;;;12.65;96.96
57050;BME280;42935;50.966;16.992;2023-04-10T10:48:35;102412.89;;;13.29;91.87
57050;BME280;42935;50.966;16.992;2023-04-10T10:51:58;102405.84;;;13.50;98.68
57050;BME280;42935;50.966;16.992;2023-04-10T10:55:28;102404.56;;;13.57;96.95
57050;BME280;42935;50.966;16.992;2023-04-10T10:59:05;102404.20;;;13.01;89.74
57050;BME280;42935;50.966;16.992;2023-04-10T11:02:30;102375.84;;;12.61;87.10
57050;BME280;42935;50.966;16.992;2023-04-10T11:06:00;102388.55;;;13.01;90.03
57050;BME280;42935;50.966;16.992;2023-04-10T11:09:53;102383.16;;;13.29;97.27
57050;BME280;42935;50.966;16.992;2023-04-10T11:16:44;102377.83;;;12.60;90.79
57050;BME280;42935;50.966;16.992;2023-04-10T11:20:12;102379.34;;;12.46;94.99
57050;BME280;42935;50.966;16.992;2023-04-10T11:30:42;102376.09;;;12.64;91.06
57050;BME280;42935;50.966;16.992;2023-04-10T11:34:09;102374.55;;;13.00;97.03
57050;BME280;42935;50.966;16.992;2023-04-10T11:37:30;102368.41;;;13.43;95.79
57050;BME280;42935;50.966;16.992;2023-04-10T11:40:59;102356.14;;;13.60;86.25
57050;BME280;42935;50.966;16.992;2023-04-10T11:44:17;102354.18;;;13.27;86.68
57050;BME280;42935;50.966;16.992;2023-04-10T11:47:51;102363.55;;;13.38;86.13
57050;BME280;42935;50.966;16.992;2023-04-10T11:51:12;102367.01;;;12.91;86.59
57050;BME280;42935;50.966;16.992;2023-04-10T11:54:36;102357.18;;;12.96;91.00
57050;BME280;42935;50.966;16.992;2023-04-10T11:58:00;102362.41;;;13.35;89.06
57050;BME280;42935;50.966;16.992;2023-04-10T12:01:21;102359.74;;;13.24;86.39
57050;BME280;42935;50.966;16.992;2023-04-10T12:04:56;102348.27;;;14.90;83.93
57050;BME280;42935;50.966;16.992;2023-04-10T12:08:31;102308.71;;;15.81;74.26
57050;BME280;42935;50.966;16.992;2023-04-10T12:11:59;102331.71;;;15.40;80.01
57050;BME280;42935;50.966;16.992;2023-04-10T12:15:29;102325.94;;;15.30;74.56
57050;BME280;42935;50.966;16.992;2023-04-10T12:18:55;102338.19;;;15.15;74.95
57050;BME280;42935;50.966;16.992;2023-04-10T12:22:25;102313.56;;;15.96;73.04
57050;BME280;42935;50.966;16.992;2023-04-10T12:25:46;102316.27;;;15.97;72.26
57050;BME280;42935;50.966;16.992;2023-04-10T12:29:13;102315.15;;;15.65;72.85
57050;BME280;42935;50.966;16.992;2023-04-10T12:32:39;102316.31;;;15.76;71.00
57050;BME280;42935;50.966;16.992;2023-04-10T12:35:59;102310.43;;;15.75;76.17
57050;BME280;42935;50.966;16.992;2023-04-10T12:39:30;102292.74;;;16.04;74.99
57050;BME280;42935;50.966;16.992;2023-04-10T12:42:54;102300.89;;;16.39;73.71
57050;BME280;42935;50.966;16.992;2023-04-10T12:53:20;102295.48;;;15.67;78.04
57050;BME280;42935;50.966;16.992;2023-04-10T12:56:44;102291.36;;;15.76;71.95
57050;BME280;42935;50.966;16.992;2023-04-10T13:00:12;102278.48;;;16.50;71.69
57050;BME280;42935;50.966;16.992;2023-04-10T13:03:41;102258.79;;;17.08;69.75
57050;BME280;42935;50.966;16.992;2023-04-10T13:07:00;102270.31;;;17.45;65.81
57050;BME280;42935;50.966;16.992;2023-04-10T13:10:21;102240.16;;;17.32;68.46
57050;BME280;42935;50.966;16.992;2023-04-10T13:13:51;102248.45;;;16.70;65.40
57050;BME280;42935;50.966;16.992;2023-04-10T13:17:18;102262.09;;;15.90;69.65
57050;BME280;42935;50.966;16.992;2023-04-10T13:20:47;102260.34;;;15.45;75.61
57050;BME280;42935;50.966;16.992;2023-04-10T13:24:09;102253.35;;;15.19;73.25
57050;BME280;42935;50.966;16.992;2023-04-10T13:28:01;102251.52;;;14.87;74.68
57050;BME280;42935;50.966;16.992;2023-04-10T13:31:36;102238.59;;;15.49;72.47
57050;BME280;42935;50.966;16.992;2023-04-10T13:34:56;102243.55;;;14.26;78.62
57050;BME280;42935;50.966;16.992;2023-04-10T13:38:16;102230.52;;;14.24;77.72
57050;BME280;42935;50.966;16.992;2023-04-10T13:41:44;102236.70;;;13.67;79.99
57050;BME280;42935;50.966;16.992;2023-04-10T13:45:05;102222.07;;;13.80;79.40
57050;BME280;42935;50.966;16.992;2023-04-10T13:48:24;102226.97;;;13.64;78.80
57050;BME280;42935;50.966;16.992;2023-04-10T13:51:52;102222.44;;;13.60;79.31
57050;BME280;42935;50.966;16.992;2023-04-10T13:55:26;102203.83;;;14.82;81.92
57050;BME280;42935;50.966;16.992;2023-04-10T13:58:45;102207.43;;;15.97;78.24
57050;BME280;42935;50.966;16.992;2023-04-10T14:02:12;102185.14;;;15.97;77.12
57050;BME280;42935;50.966;16.992;2023-04-10T14:05:33;102149.13;;;15.73;76.67
57050;BME280;42935;50.966;16.992;2023-04-10T14:08:53;102181.99;;;17.28;71.33
57050;BME280;42935;50.966;16.992;2023-04-10T14:12:17;102173.12;;;17.83;70.83
57050;BME280;42935;50.966;16.992;2023-04-10T14:15:44;102169.61;;;17.54;68.61
57050;BME280;42935;50.966;16.992;2023-04-10T14:19:08;102172.17;;;17.49;67.24
57050;BME280;42935;50.966;16.992;2023-04-10T14:22:39;102166.14;;;17.73;67.18
57050;BME280;42935;50.966;16.992;2023-04-10T14:25:59;102168.97;;;16.72;65.39
57050;BME280;42935;50.966;16.992;2023-04-10T14:29:20;102157.10;;;17.37;66.87
57050;BME280;42935;50.966;16.992;2023-04-10T14:32:47;102140.33;;;17.52;66.35
57050;BME280;42935;50.966;16.992;2023-04-10T14:36:14;102113.12;;;18.40;64.84
57050;BME280;42935;50.966;16.992;2023-04-10T14:39:37;102131.80;;;18.22;64.11
57050;BME280;42935;50.966;16.992;2023-04-10T14:42:58;102133.19;;;18.33;64.63
57050;BME280;42935;50.966;16.992;2023-04-10T14:46:15;102123.25;;;18.98;63.31
57050;BME280;42935;50.966;16.992;2023-04-10T14:49:37;102119.20;;;19.15;60.73
57050;BME280;42935;50.966;16.992;2023-04-10T14:52:59;102113.41;;;18.91;61.46
57050;BME280;42935;50.966;16.992;2023-04-10T14:56:19;102092.26;;;20.07;59.71
57050;BME280;42935;50.966;16.992;2023-04-10T14:59:44;102100.03;;;19.00;58.94
57050;BME280;42935;50.966;16.992;2023-04-10T15:03:03;102102.04;;;18.64;63.30
57050;BME280;42935;50.966;16.992;2023-04-10T15:06:27;102088.11;;;18.92;60.74
57050;BME280;42935;50.966;16.992;2023-04-10T15:09:55;102082.46;;;19.00;60.31
57050;BME280;42935;50.966;16.992;2023-04-10T15:13:14;102080.33;;;18.74;59.68
57050;BME280;42935;50.966;16.992;2023-04-10T15:16:34;102069.77;;;19.10;59.88
57050;BME280;42935;50.966;16.992;2023-04-10T15:19:55;102069.04;;;18.30;61.09
57050;BME280;42935;50.966;16.992;2023-04-10T15:23:21;102067.16;;;17.59;60.83
57050;BME280;42935;50.966;16.992;2023-04-10T15:26:50;102051.07;;;18.95;59.63
57050;BME280;42935;50.966;16.992;2023-04-10T15:30:12;102037.04;;;18.70;61.30
57050;BME280;42935;50.966;16.992;2023-04-10T15:33:33;102040.90;;;18.07;61.88
57050;BME280;42935;50.966;16.992;2023-04-10T15:36:57;102046.67;;;18.59;58.30
57050;BME280;42935;50.966;16.992;2023-04-10T15:40:17;102031.32;;;17.39;60.43
57050;BME280;42935;50.966;16.992;2023-04-10T15:43:37;102037.06;;;18.67;61.31
57050;BME280;42935;50.966;16.992;2023-04-10T15:46:58;102033.04;;;18.18;59.24
57050;BME280;42935;50.966;16.992;2023-04-10T15:50:22;102022.21;;;16.92;61.95
57050;BME280;42935;50.966;16.992;2023-04-10T15:53:43;102023.70;;;17.73;60.68
57050;BME280;42935;50.966;16.992;2023-04-10T15:57:03;102023.34;;;16.69;61.31
57050;BME280;42935;50.966;16.992;2023-04-10T16:00:27;101999.22;;;17.34;60.55
57050;BME280;42935;50.966;16.992;2023-04-10T16:03:44;102011.17;;;17.62;58.89
57050;BME280;42935;50.966;16.992;2023-04-10T16:07:06;102017.99;;;16.51;62.37
57050;BME280;42935;50.966;16.992;2023-04-10T16:10:28;101997.80;;;16.92;62.34
57050;BME280;42935;50.966;16.992;2023-04-10T16:13:48;102008.30;;;18.52;60.44
57050;BME280;42935;50.966;16.992;2023-04-10T16:17:17;102006.10;;;18.41;60.46
57050;BME280;42935;50.966;16.992;2023-04-10T16:20:45;102001.05;;;17.51;62.08
57050;BME280;42935;50.966;16.992;2023-04-10T16:24:03;102002.73;;;16.88;62.95
57050;BME280;42935;50.966;16.992;2023-04-10T16:27:22;101985.64;;;16.72;63.32
57050;BME280;42935;50.966;16.992;2023-04-10T16:30:43;101975.57;;;16.10;65.06
57050;BME280;42935;50.966;16.992;2023-04-10T16:34:08;101988.63;;;15.16;67.78
57050;BME280;42935;50.966;16.992;2023-04-10T16:37:32;101989.58;;;15.79;67.44
57050;BME280;42935;50.966;16.992;2023-04-10T16:41:05;101933.24;;;14.88;68.77
57050;BME280;42935;50.966;16.992;2023-04-10T16:44:25;101980.05;;;14.56;70.95
57050;BME280;42935;50.966;16.992;2023-04-10T16:48:00;101977.91;;;13.47;76.78
57050;BME280;42935;50.966;16.992;2023-04-10T16:51:28;101967.12;;;13.50;77.61
57050;BME280;42935;50.966;16.992;2023-04-10T16:54:55;101961.27;;;13.00;81.05
57050;BME280;42935;50.966;16.992;2023-04-10T16:58:24;101966.94;;;13.26;80.46
57050;BME280;42935;50.966;16.992;2023-04-10T17:01:50;101954.52;;;12.75;82.90
57050;BME280;42935;50.966;16.992;2023-04-10T17:05:06;101965.67;;;12.64;84.87
57050;BME280;42935;50.966;16.992;2023-04-10T17:08:34;101950.59;;;12.83;83.29
57050;BME280;42935;50.966;16.992;2023-04-10T17:11:54;101959.77;;;12.92;82.83
57050;BME280;42935;50.966;16.992;2023-04-10T17:15:20;101947.39;;;12.57;85.76
57050;BME280;42935;50.966;16.992;2023-04-10T17:18:41;101962.40;;;12.03;92.31
57050;BME280;42935;50.966;16.992;2023-04-10T17:22:09;101951.96;;;11.67;96.00
57050;BME280;42935;50.966;16.992;2023-04-10T17:25:39;101972.16;;;11.64;96.16
57050;BME280;42935;50.966;16.992;2023-04-10T17:29:03;101965.55;;;11.51;95.74
57050;BME280;42935;50.966;16.992;2023-04-10T17:32:27;101976.27;;;10.94;100.00
57050;BME280;42935;50.966;16.992;2023-04-10T17:35:46;101975.03;;;11.16;99.12
57050;BME280;42935;50.966;16.992;2023-04-10T17:39:12;101975.30;;;11.15;98.03
57050;BME280;42935;50.966;16.992;2023-04-10T17:42:36;101975.48;;;10.39;100.00
57050;BME280;42935;50.966;16.992;2023-04-10T17:46:04;101973.04;;;9.97;100.00
57050;BME280;42935;50.966;16.992;2023-04-10T17:49:25;101969.57;;;9.75;100.00
57050;BME280;42935;50.966;16.992;2023-04-10T17:52:53;101952.85;;;10.05;100.00
57050;BME280;42935;50.966;16.992;2023-04-10T17:56:17;101953.16;;;9.79;100.00
57050;BME280;42935;50.966;16.992;2023-04-10T17:59:48;101957.25;;;9.56;100.00
57050;BME280;42935;50.966;16.992;2023-04-10T18:03:08;101963.89;;;9.92;100.00
57050;BME280;42935;50.966;16.992;2023-04-10T18:06:32;101953.73;;;9.96;100.00
57050;BME280;42935;50.966;16.992;2023-04-10T18:09:53;101961.11;;;9.99;100.00
57050;BME280;42935;50.966;16.992;2023-04-10T18:13:14;101954.15;;;9.56;100.00
57050;BME280;42935;50.966;16.992;2023-04-10T18:16:41;101956.26;;;9.37;100.00
57050;BME280;42935;50.966;16.992;2023-04-10T18:20:07;101956.27;;;8.60;100.00
57050;BME280;42935;50.966;16.992;2023-04-10T18:23:32;101970.23;;;8.52;100.00